createdAt,value
2018-09-14T00:00:48.290Z,17.10
2018-09-14T00:03:16.382Z,17.20
2018-09-14T00:05:44.467Z,17.20
2018-09-14T00:08:12.552Z,17.20
2018-09-14T00:10:40.639Z,17.20
2018-09-14T00:13:08.735Z,17.30
2018-09-14T00:15:36.814Z,17.30
2018-09-14T00:18:04.915Z,17.20
2018-09-14T00:20:33.094Z,17.30
2018-09-14T00:23:01.244Z,16.90
2018-09-14T00:25:29.554Z,16.60
2018-09-14T00:27:57.677Z,16.80
2018-09-14T00:30:25.771Z,16.90
2018-09-14T00:32:53.892Z,16.90
2018-09-14T00:35:21.963Z,17.00
2018-09-14T00:37:50.052Z,16.70
2018-09-14T00:40:18.155Z,16.40
2018-09-14T00:42:46.246Z,16.50
2018-09-14T00:45:14.331Z,16.70
2018-09-14T00:47:42.457Z,16.80
2018-09-14T00:50:10.531Z,16.90
2018-09-14T00:52:38.619Z,16.90
2018-09-14T00:55:06.701Z,16.80
2018-09-14T00:57:34.790Z,16.90
2018-09-14T01:00:02.907Z,16.90
2018-09-14T01:02:30.967Z,16.90
2018-09-14T01:04:59.019Z,16.90
2018-09-14T01:07:27.075Z,16.90
2018-09-14T01:09:55.135Z,16.80
2018-09-14T01:12:23.210Z,16.80
2018-09-14T01:14:51.274Z,16.70
2018-09-14T01:17:19.388Z,16.70
2018-09-14T01:19:47.407Z,16.60
2018-09-14T01:22:15.463Z,16.60
2018-09-14T01:24:43.522Z,16.60
2018-09-14T01:27:11.581Z,16.60
2018-09-14T01:29:39.647Z,16.50
2018-09-14T01:32:07.711Z,16.50
2018-09-14T01:34:35.780Z,16.50
2018-09-14T01:37:03.872Z,16.20
2018-09-14T01:39:31.942Z,16.20
2018-09-14T01:41:59.998Z,16.30
2018-09-14T01:44:28.067Z,16.30
2018-09-14T01:46:56.131Z,16.20
2018-09-14T01:49:24.185Z,16.10
2018-09-14T01:51:52.284Z,15.90
2018-09-14T01:54:20.374Z,15.90
2018-09-14T01:56:48.434Z,15.80
2018-09-14T01:59:16.522Z,15.60
2018-09-14T02:01:44.606Z,15.10
2018-09-14T02:04:12.698Z,15.00
2018-09-14T02:06:40.789Z,15.10
2018-09-14T02:09:09.902Z,15.40
2018-09-14T02:11:38.025Z,15.40
2018-09-14T02:14:06.114Z,15.30
2018-09-14T02:16:34.199Z,15.20
2018-09-14T02:19:02.312Z,15.30
2018-09-14T02:21:30.378Z,15.50
2018-09-14T02:23:58.468Z,15.50
2018-09-14T02:26:26.557Z,15.50
2018-09-14T02:28:54.682Z,15.50
2018-09-14T02:31:22.775Z,15.50
2018-09-14T02:33:50.877Z,15.50
2018-09-14T02:36:18.962Z,15.60
2018-09-14T02:38:47.063Z,15.60
2018-09-14T02:41:15.143Z,15.70
2018-09-14T02:43:43.223Z,15.60
2018-09-14T02:46:11.314Z,15.60
2018-09-14T02:48:39.412Z,15.50
2018-09-14T02:51:07.502Z,15.50
2018-09-14T02:53:35.591Z,15.60
2018-09-14T02:56:03.681Z,15.60
2018-09-14T02:58:31.739Z,15.50
2018-09-14T03:00:59.808Z,15.60
2018-09-14T03:03:27.867Z,15.50
2018-09-14T03:05:55.939Z,15.50
2018-09-14T03:08:24.003Z,15.40
2018-09-14T03:10:52.075Z,15.30
2018-09-14T03:13:20.145Z,15.10
2018-09-14T03:15:48.618Z,14.90
2018-09-14T03:18:16.689Z,14.90
2018-09-14T03:20:44.765Z,15.00
2018-09-14T03:23:12.827Z,14.90
2018-09-14T03:25:40.888Z,14.80
2018-09-14T03:28:08.951Z,14.30
2018-09-14T03:30:37.022Z,13.80
2018-09-14T03:33:05.100Z,14.00
2018-09-14T03:35:33.159Z,14.20
2018-09-14T03:38:01.239Z,14.10
2018-09-14T03:40:29.955Z,14.00
2018-09-14T03:42:58.012Z,13.90
2018-09-14T03:45:26.078Z,14.10
2018-09-14T03:47:54.148Z,14.30
2018-09-14T03:50:22.225Z,14.60
2018-09-14T03:52:50.301Z,14.80
2018-09-14T03:55:18.369Z,14.90
2018-09-14T03:57:46.441Z,15.00
2018-09-14T04:00:14.558Z,15.10
2018-09-14T04:02:42.646Z,15.10
2018-09-14T04:05:10.724Z,15.10
2018-09-14T04:07:38.824Z,15.10
2018-09-14T04:10:06.923Z,15.10
2018-09-14T04:12:35.025Z,15.10
2018-09-14T04:15:07.848Z,15.10
2018-09-14T04:17:35.935Z,15.00
2018-09-14T04:20:04.031Z,15.00
2018-09-14T04:22:32.134Z,14.90
2018-09-14T04:25:00.218Z,15.00
2018-09-14T04:27:28.328Z,15.00
2018-09-14T04:29:56.426Z,14.90
2018-09-14T04:32:24.520Z,14.80
2018-09-14T04:34:52.623Z,14.80
2018-09-14T04:37:20.726Z,14.80
2018-09-14T04:39:49.093Z,14.90
2018-09-14T04:42:17.168Z,14.80
2018-09-14T04:44:45.255Z,14.80
2018-09-14T04:47:13.378Z,14.80
2018-09-14T04:49:41.503Z,14.70
2018-09-14T04:52:09.642Z,14.70
2018-09-14T04:54:37.735Z,14.70
2018-09-14T04:57:05.892Z,14.70
2018-09-14T04:59:34.003Z,14.70
2018-09-14T05:02:02.131Z,14.70
2018-09-14T05:04:30.243Z,14.60
2018-09-14T05:06:58.335Z,14.70
2018-09-14T05:09:26.474Z,14.70
2018-09-14T05:11:54.544Z,14.70
2018-09-14T05:14:22.628Z,14.60
2018-09-14T05:16:50.760Z,14.60
2018-09-14T05:19:18.865Z,14.70
2018-09-14T05:21:47.003Z,14.60
2018-09-14T05:24:15.301Z,14.70
2018-09-14T05:26:43.391Z,14.80
2018-09-14T05:29:11.470Z,14.80
2018-09-14T05:31:39.584Z,14.80
2018-09-14T05:34:07.872Z,14.80
2018-09-14T05:36:35.955Z,14.80
2018-09-14T05:39:05.819Z,14.80
2018-09-14T05:41:33.946Z,14.80
2018-09-14T05:44:02.066Z,14.90
2018-09-14T05:46:30.310Z,14.90
2018-09-14T05:48:58.558Z,14.90
2018-09-14T05:51:26.648Z,15.00
2018-09-14T05:53:54.884Z,15.00
2018-09-14T05:56:24.356Z,15.10
2018-09-14T05:58:53.007Z,15.20
2018-09-14T06:01:21.200Z,15.20
2018-09-14T06:03:49.565Z,15.20
2018-09-14T06:06:17.978Z,15.20
2018-09-14T06:08:46.031Z,15.30
2018-09-14T06:11:14.139Z,15.40
2018-09-14T06:13:42.246Z,15.50
2018-09-14T06:16:10.319Z,15.60
2018-09-14T06:18:38.386Z,15.60
2018-09-14T06:21:06.811Z,15.70
2018-09-14T06:26:22.787Z,15.90
2018-09-14T06:28:51.916Z,15.90
2018-09-14T06:31:20.046Z,16.10
2018-09-14T06:33:48.127Z,16.30
2018-09-14T06:36:16.223Z,16.50
2018-09-14T06:38:44.368Z,16.70
2018-09-14T06:41:12.481Z,16.90
2018-09-14T06:43:40.787Z,17.30
2018-09-14T06:46:09.100Z,17.60
2018-09-14T06:48:37.211Z,17.80
2018-09-14T06:51:05.337Z,17.70
2018-09-14T06:53:33.416Z,17.70
2018-09-14T06:56:01.543Z,17.80
2018-09-14T06:58:30.406Z,17.70
2018-09-14T07:00:58.498Z,17.70
2018-09-14T07:03:26.620Z,17.70
2018-09-14T07:05:54.717Z,17.90
2018-09-14T07:08:22.835Z,17.90
2018-09-14T07:10:51.051Z,17.90
2018-09-14T07:13:19.230Z,18.00
2018-09-14T07:15:47.262Z,18.00
2018-09-14T07:18:15.384Z,18.00
2018-09-14T07:20:43.457Z,18.00
2018-09-14T07:23:11.539Z,18.10
2018-09-14T07:25:39.746Z,18.10
2018-09-14T07:28:08.038Z,18.00
2018-09-14T07:30:36.236Z,17.90
2018-09-14T07:33:04.317Z,17.50
2018-09-14T07:35:32.882Z,17.80
2018-09-14T07:38:01.017Z,18.10
2018-09-14T07:40:29.110Z,18.20
2018-09-14T07:42:57.220Z,18.40
2018-09-14T07:45:25.286Z,18.70
2018-09-14T07:47:53.382Z,18.70
2018-09-14T07:50:21.581Z,18.90
2018-09-14T07:52:49.655Z,18.90
2018-09-14T07:55:17.724Z,19.00
2018-09-14T07:57:45.810Z,19.40
2018-09-14T08:00:13.910Z,19.70
2018-09-14T08:02:42.011Z,19.90
2018-09-14T08:05:10.131Z,19.60
2018-09-14T08:07:38.223Z,19.50
2018-09-14T08:10:06.314Z,19.60
2018-09-14T08:12:34.408Z,19.90
2018-09-14T08:15:03.004Z,20.10
2018-09-14T08:17:32.501Z,20.30
2018-09-14T08:20:02.543Z,20.20
2018-09-14T08:22:31.223Z,20.20
2018-09-14T08:24:59.331Z,20.30
2018-09-14T08:27:27.426Z,20.60
2018-09-14T08:29:55.518Z,20.50
2018-09-14T08:32:23.693Z,20.80
2018-09-14T08:34:51.831Z,21.20
2018-09-14T08:37:20.023Z,21.10
2018-09-14T08:39:48.116Z,21.70
2018-09-14T08:42:16.215Z,22.00
2018-09-14T08:44:44.316Z,22.40
2018-09-14T08:47:12.410Z,23.00
2018-09-14T08:49:40.516Z,23.70
2018-09-14T08:52:08.607Z,24.90
2018-09-14T08:54:36.705Z,24.90
2018-09-14T08:57:04.795Z,25.40
2018-09-14T08:59:32.925Z,26.30
2018-09-14T09:02:00.984Z,28.20
2018-09-14T09:04:29.056Z,30.30
2018-09-14T09:06:57.141Z,32.30
2018-09-14T09:09:25.224Z,32.50
2018-09-14T09:11:53.370Z,33.60
2018-09-14T09:14:21.463Z,34.80
2018-09-14T09:16:49.531Z,35.30
2018-09-14T09:19:17.661Z,35.00
2018-09-14T09:21:45.708Z,35.80
2018-09-14T09:24:13.803Z,36.90
2018-09-14T09:26:41.911Z,37.10
2018-09-14T09:29:10.003Z,37.40
2018-09-14T09:31:38.114Z,37.20
2018-09-14T09:34:06.240Z,37.30
2018-09-14T09:36:34.335Z,38.10
2018-09-14T09:39:02.479Z,38.80
2018-09-14T09:41:30.751Z,38.60
2018-09-14T09:43:58.937Z,38.60
2018-09-14T09:46:27.030Z,38.80
2018-09-14T09:48:55.224Z,39.20
2018-09-14T09:51:23.413Z,38.70
2018-09-14T09:53:51.467Z,38.70
2018-09-14T09:56:19.576Z,37.40
2018-09-14T09:58:47.794Z,37.90
2018-09-14T10:01:21.456Z,38.80
2018-09-14T10:21:13.176Z,40.20
2018-09-14T10:23:41.230Z,39.20
2018-09-14T10:28:37.204Z,39.40
2018-09-14T10:36:01.250Z,40.30
2018-09-14T10:40:58.046Z,37.00
2018-09-14T10:48:21.952Z,37.70
2018-09-14T10:50:50.020Z,37.20
2018-09-14T10:53:18.083Z,38.00
2018-09-14T11:03:09.831Z,34.20
2018-09-14T11:05:37.953Z,33.00
2018-09-14T11:08:06.126Z,32.80
2018-09-14T11:10:34.226Z,30.90
2018-09-14T11:13:02.345Z,30.40
2018-09-14T11:15:31.367Z,30.30
2018-09-14T11:17:59.493Z,29.30
2018-09-14T11:20:27.735Z,29.00
2018-09-14T11:25:24.121Z,27.10
2018-09-14T11:27:52.071Z,27.60
2018-09-14T11:30:20.177Z,29.00
2018-09-14T11:37:44.212Z,31.70
2018-09-14T11:40:12.270Z,31.70
2018-09-14T11:42:40.356Z,32.10
2018-09-14T11:45:08.462Z,32.90
2018-09-14T11:47:36.539Z,32.60
2018-09-14T11:50:04.639Z,32.30
2018-09-14T11:55:00.600Z,33.70
2018-09-14T11:59:56.554Z,35.00
2018-09-14T12:02:25.146Z,36.00
2018-09-14T12:12:17.876Z,33.40
2018-09-14T12:17:13.831Z,35.20
2018-09-14T12:19:41.898Z,35.80
2018-09-14T12:22:10.141Z,35.70
2018-09-14T12:24:38.208Z,36.20
2018-09-14T12:27:06.450Z,36.60
2018-09-14T12:29:34.520Z,36.50
2018-09-14T12:32:02.623Z,36.20
2018-09-14T12:34:31.030Z,34.60
2018-09-14T12:36:59.098Z,34.60
2018-09-14T12:49:18.723Z,34.10
2018-09-14T12:54:14.707Z,33.80
2018-09-14T13:01:38.658Z,34.50
2018-09-14T13:11:30.912Z,31.40
2018-09-14T13:13:58.968Z,31.00
2018-09-14T13:16:27.076Z,31.30
2018-09-14T13:18:55.119Z,31.80
2018-09-14T13:21:23.225Z,32.80
2018-09-14T13:23:51.292Z,32.60
2018-09-14T13:36:11.130Z,32.40
2018-09-14T13:38:39.211Z,31.30
2018-09-14T13:43:35.394Z,30.90
2018-09-14T13:46:03.480Z,30.90
2018-09-14T13:50:59.517Z,29.70
2018-09-14T13:53:27.582Z,30.50
2018-09-14T13:58:23.727Z,29.80
2018-09-14T14:00:51.986Z,29.50
2018-09-14T14:20:35.710Z,31.70
2018-09-14T14:23:04.120Z,31.40
2018-09-14T14:40:19.551Z,31.50
2018-09-14T14:42:47.765Z,31.80
2018-09-14T14:47:43.749Z,30.70
2018-09-14T14:50:11.825Z,30.30
2018-09-14T14:52:39.903Z,30.30
2018-09-14T14:57:35.834Z,30.90
2018-09-14T15:00:03.910Z,30.20
2018-09-14T15:02:31.980Z,29.40
2018-09-14T15:05:00.051Z,29.00
2018-09-14T15:07:28.135Z,28.40
2018-09-14T15:09:56.199Z,28.80
2018-09-14T15:12:24.283Z,29.20
2018-09-14T15:14:52.374Z,29.90
2018-09-14T15:17:20.435Z,29.70
2018-09-14T15:19:48.551Z,28.40
2018-09-14T15:22:16.659Z,28.20
2018-09-14T15:27:12.653Z,28.80
2018-09-14T15:29:40.763Z,28.60
2018-09-14T15:32:08.855Z,28.30
2018-09-14T15:34:36.979Z,29.00
2018-09-14T15:37:05.241Z,28.40
2018-09-14T15:42:01.249Z,27.90
2018-09-14T15:44:29.383Z,27.70
2018-09-14T15:46:57.493Z,27.30
2018-09-14T15:54:21.454Z,26.00
2018-09-14T15:59:17.505Z,26.40
2018-09-14T16:01:45.597Z,26.20
2018-09-14T16:04:13.827Z,25.20
2018-09-14T16:06:42.147Z,25.20
2018-09-14T16:09:11.654Z,25.50
2018-09-14T16:11:39.966Z,25.80
2018-09-14T16:14:08.310Z,25.90
2018-09-14T16:19:04.594Z,25.90
2018-09-14T16:21:32.875Z,25.60
2018-09-14T16:26:28.841Z,25.50
2018-09-14T16:28:56.963Z,25.90
2018-09-14T16:33:52.891Z,25.90
2018-09-14T16:36:20.950Z,24.70
2018-09-14T16:38:49.040Z,26.10
2018-09-14T16:41:17.095Z,26.00
2018-09-14T16:43:45.794Z,25.90
2018-09-14T16:46:13.847Z,25.70
2018-09-14T16:48:41.914Z,25.70
2018-09-14T16:51:09.986Z,25.50
2018-09-14T16:53:38.048Z,24.80
2018-09-14T16:56:06.139Z,24.90
2018-09-14T16:58:34.373Z,25.10
2018-09-14T17:01:02.473Z,25.00
2018-09-14T17:03:30.633Z,24.60
2018-09-14T17:05:58.851Z,24.80
2018-09-14T17:08:26.956Z,24.90
2018-09-14T17:10:55.076Z,25.20
2018-09-14T17:13:23.168Z,25.50
2018-09-14T17:15:51.559Z,25.30
2018-09-14T17:18:19.849Z,25.20
2018-09-14T17:20:47.902Z,24.80
2018-09-14T17:23:15.975Z,24.80
2018-09-14T17:25:44.049Z,24.60
2018-09-14T17:28:12.181Z,24.30
2018-09-14T17:30:40.274Z,24.40
2018-09-14T17:33:08.376Z,24.30
2018-09-14T17:35:36.473Z,24.50
2018-09-14T17:38:04.618Z,24.80
2018-09-14T17:40:32.758Z,24.50
2018-09-14T17:43:00.944Z,24.60
2018-09-14T17:45:29.115Z,24.80
2018-09-14T17:47:57.207Z,24.70
2018-09-14T17:50:25.306Z,24.50
2018-09-14T17:52:53.487Z,24.40
2018-09-14T17:55:21.606Z,24.50
2018-09-14T17:57:49.767Z,24.60
2018-09-14T18:00:17.864Z,24.60
2018-09-14T18:07:41.929Z,24.30
2018-09-14T18:10:10.047Z,24.30
2018-09-14T18:27:25.624Z,24.00
2018-09-14T18:32:21.575Z,23.80
2018-09-14T18:34:49.695Z,23.80
2018-09-14T18:42:13.698Z,23.60
2018-09-14T18:49:37.598Z,23.50
2018-09-14T18:54:33.707Z,23.30
2018-09-14T18:57:01.887Z,23.30
2018-09-14T18:59:29.983Z,23.30
2018-09-14T19:01:58.105Z,23.30
2018-09-14T19:04:26.206Z,23.20
2018-09-14T19:06:54.438Z,23.20
2018-09-14T19:09:22.561Z,23.20
2018-09-14T19:24:10.271Z,22.80
2018-09-14T19:26:38.373Z,22.80
2018-09-14T19:29:06.450Z,22.80
2018-09-14T19:31:34.611Z,22.80
2018-09-14T19:34:02.675Z,22.70
2018-09-14T19:36:30.828Z,22.70
2018-09-14T19:38:58.880Z,22.80
2018-09-14T19:41:26.988Z,22.50
2018-09-14T19:43:55.278Z,22.30
2018-09-14T19:46:23.348Z,22.20
2018-09-14T19:48:51.431Z,22.30
2018-09-14T19:51:19.592Z,22.30
2018-09-14T19:53:47.639Z,22.10
2018-09-14T19:56:15.823Z,22.30
2018-09-14T19:58:43.915Z,22.20
2018-09-14T20:01:11.988Z,22.30
2018-09-14T20:03:40.075Z,22.30
2018-09-14T20:06:08.224Z,22.30
2018-09-14T20:08:36.267Z,22.30
2018-09-14T20:11:04.369Z,22.40
2018-09-14T20:13:32.466Z,22.30
2018-09-14T20:16:00.683Z,22.20
2018-09-14T20:18:28.869Z,22.20
2018-09-14T20:20:56.878Z,22.10
2018-09-14T20:23:24.978Z,22.20
2018-09-14T20:25:53.110Z,22.00
2018-09-14T20:28:21.198Z,22.00
2018-09-14T20:38:13.245Z,21.90
2018-09-14T20:40:41.335Z,21.90
2018-09-14T20:48:05.340Z,21.70
2018-09-14T20:50:33.545Z,21.60
2018-09-14T20:53:01.675Z,21.60
2018-09-14T20:55:29.790Z,21.70
2018-09-14T20:57:58.046Z,21.60
2018-09-14T21:00:26.174Z,21.70
2018-09-14T21:02:54.762Z,21.70
2018-09-14T21:05:22.912Z,21.80
2018-09-14T21:07:51.030Z,21.80
2018-09-14T21:10:19.147Z,21.80
2018-09-14T21:15:15.262Z,21.70
2018-09-14T21:17:43.393Z,21.70
2018-09-14T21:22:39.474Z,21.60
2018-09-14T21:25:07.655Z,21.60
2018-09-14T21:27:35.822Z,21.70
2018-09-14T21:30:05.541Z,21.60
2018-09-14T21:32:33.931Z,21.70
2018-09-14T21:35:02.036Z,21.80
2018-09-14T21:37:30.138Z,22.00
2018-09-14T21:39:58.226Z,21.10
2018-09-14T21:42:26.331Z,22.10
2018-09-14T21:44:54.433Z,21.80
2018-09-14T21:47:23.538Z,21.70
2018-09-14T21:49:51.655Z,21.80
2018-09-14T21:52:19.837Z,21.80
2018-09-14T21:54:47.948Z,21.60
2018-09-14T21:57:16.064Z,21.60
2018-09-14T21:59:44.167Z,21.50
2018-09-14T22:02:12.326Z,21.40
2018-09-14T22:04:40.438Z,21.40
2018-09-14T22:07:08.746Z,21.30
2018-09-14T22:09:36.853Z,21.10
2018-09-14T22:12:05.023Z,21.00
2018-09-14T22:14:33.170Z,21.20
2018-09-14T22:17:01.288Z,21.00
2018-09-14T22:19:29.387Z,21.00
2018-09-14T22:21:57.484Z,21.00
2018-09-14T22:24:25.567Z,20.90
2018-09-14T22:26:53.815Z,20.90
2018-09-14T22:29:22.023Z,20.90
2018-09-14T22:31:50.124Z,20.90
2018-09-14T22:34:18.258Z,21.10
2018-09-14T22:36:46.375Z,21.10
2018-09-14T22:39:14.476Z,21.20
2018-09-14T22:41:42.583Z,21.30
2018-09-14T22:44:10.727Z,21.40
2018-09-14T22:46:38.955Z,21.40
2018-09-14T22:49:07.050Z,21.20
2018-09-14T22:51:35.198Z,21.10
2018-09-14T22:54:03.310Z,21.00
2018-09-14T22:56:32.310Z,20.80
2018-09-14T22:59:00.388Z,20.70
2018-09-14T23:01:28.459Z,20.70
2018-09-14T23:03:56.543Z,20.60
2018-09-14T23:06:24.610Z,20.50
2018-09-14T23:08:52.700Z,20.50
2018-09-14T23:11:20.748Z,20.60
2018-09-14T23:13:48.975Z,20.60
2018-09-14T23:16:17.053Z,20.60
2018-09-14T23:18:45.174Z,20.60
2018-09-14T23:21:13.244Z,20.40
2018-09-14T23:23:41.323Z,20.10
2018-09-14T23:26:12.726Z,20.00
2018-09-14T23:28:40.794Z,20.00
2018-09-14T23:31:08.858Z,20.20
2018-09-14T23:33:36.914Z,20.20
2018-09-14T23:36:05.006Z,20.20
2018-09-14T23:38:33.066Z,20.20
2018-09-14T23:43:29.006Z,20.10
2018-09-14T23:45:57.164Z,20.00
2018-09-14T23:48:25.222Z,19.90
2018-09-14T23:50:53.290Z,19.80
2018-09-14T23:53:21.357Z,19.80
2018-09-14T23:55:49.448Z,19.70
2018-09-14T23:58:17.506Z,19.50
